Time;durP1;ratioP1;P1;durP2;ratioP2;P2;SDS_P1;SDS_P2;PMS_P1;PMS_P2;Temp;Humidity;BMP_temperature;BMP_pressure;BME280_temperature;BME280_humidity;BME280_pressure;Samples;Min_cycle;Max_cycle;Signal;HPM_P1;HPM_P2
2022/09/05 00:00:57;;;;;;;;;;;19.40;99.90;;;;;;5041896;28;19925;-81
2022/09/05 00:03:27;;;;;;;;;;;19.30;99.90;;;;;;5041455;28;19925;-81
2022/09/05 00:06:04;;;;;;;;;;;19.30;99.90;;;;;;5041134;28;19925;-81
2022/09/05 00:08:45;;;;;;;;;;;19.30;99.90;;;;;;5056575;28;20174;-81
2022/09/05 00:11:18;;;;;;;;;;;19.30;99.90;;;;;;5072740;28;19936;-81
2022/09/05 00:13:55;;;;;;;;;;;19.30;99.90;;;;;;5052416;28;19924;-81
2022/09/05 00:16:39;;;;;;;;;;;19.30;99.90;;;;;;5061298;28;20280;-81
2022/09/05 00:19:14;;;;;;;;;;;19.30;99.90;;;;;;5093320;28;19930;-81
2022/09/05 00:21:51;;;;;;;;;;;19.20;99.90;;;;;;5060884;28;20378;-81
2022/09/05 00:24:16;;;;;;;;;;;19.20;99.90;;;;;;5059829;28;19924;-81
2022/09/05 00:26:48;;;;;;;;;;;19.20;99.90;;;;;;5076367;28;19978;-81
2022/09/05 00:29:13;;;;;;;;;;;19.20;99.90;;;;;;5041518;28;19925;-81
2022/09/05 00:31:38;;;;;;;;;;;19.10;99.90;;;;;;5040874;28;19978;-81
2022/09/05 00:34:13;;;;;;;;;;;19.10;99.90;;;;;;5041332;28;20466;-81
2022/09/05 00:36:49;;;;;;;;;;;19.10;99.90;;;;;;5060021;28;20310;-81
2022/09/05 00:39:43;;;;;;;;;;;19.10;99.90;;;;;;5063801;28;20015;-81
2022/09/05 00:42:13;;;;;;;;;;;19.00;99.90;;;;;;5055363;28;19924;-81
2022/09/05 00:44:54;;;;;;;;;;;19.00;99.90;;;;;;5063958;28;19925;-81
2022/09/05 00:47:27;;;;;;;;;;;19.00;99.90;;;;;;5063453;28;19951;-81
2022/09/05 00:50:01;;;;;;;;;;;19.00;99.90;;;;;;5064003;28;19925;-81
2022/09/05 00:52:37;;;;;;;;;;;18.90;99.90;;;;;;5080520;28;19925;-81
2022/09/05 00:55:09;;;;;;;;;;;18.90;99.90;;;;;;5063231;28;19968;-81
2022/09/05 00:57:54;;;;;;;;;;;18.90;99.90;;;;;;5045498;28;19976;-81
2022/09/05 01:00:24;;;;;;;;;;;18.90;99.90;;;;;;5044216;28;19936;-81
2022/09/05 01:03:01;;;;;;;;;;;18.90;99.90;;;;;;5043505;28;19935;-81
2022/09/05 01:05:42;;;;;;;;;;;18.80;99.90;;;;;;5066461;22;19925;-80
2022/09/05 01:08:28;;;;;;;;;;;18.80;99.90;;;;;;5004348;28;19988;-80
2022/09/05 01:10:56;;;;;;;;;;;18.80;99.90;;;;;;4991887;28;19933;-81
2022/09/05 01:13:39;;;;;;;;;;;18.80;99.90;;;;;;5004352;28;20418;-80
2022/09/05 01:16:15;;;;;;;;;;;18.80;99.90;;;;;;5018784;28;19933;-81
2022/09/05 01:18:45;;;;;;;;;;;18.80;99.90;;;;;;5004163;28;19927;-81
2022/09/05 01:21:29;;;;;;;;;;;18.70;99.90;;;;;;5003889;28;19925;-81
2022/09/05 01:24:01;;;;;;;;;;;18.70;99.90;;;;;;5003133;28;20233;-81
2022/09/05 01:26:39;;;;;;;;;;;18.60;99.90;;;;;;5002131;28;19930;-81
2022/09/05 01:29:07;;;;;;;;;;;18.70;99.90;;;;;;5003730;28;19971;-81
2022/09/05 01:31:39;;;;;;;;;;;18.70;99.90;;;;;;5003513;28;19925;-81
2022/09/05 01:34:10;;;;;;;;;;;18.60;99.90;;;;;;5003402;28;19935;-80
2022/09/05 01:36:44;;;;;;;;;;;18.60;99.90;;;;;;5003514;28;19926;-81
2022/09/05 01:39:16;;;;;;;;;;;18.50;99.90;;;;;;5003198;28;19929;-80
2022/09/05 01:41:54;;;;;;;;;;;18.50;99.90;;;;;;5003386;28;19925;-81
2022/09/05 01:44:36;;;;;;;;;;;18.50;99.90;;;;;;5003714;28;19929;-80
2022/09/05 01:47:09;;;;;;;;;;;18.50;99.90;;;;;;5003466;28;19972;-81
2022/09/05 01:49:55;;;;;;;;;;;18.40;99.90;;;;;;5003149;28;19921;-81
2022/09/05 01:52:24;;;;;;;;;;;18.40;99.90;;;;;;5003699;28;19976;-81
2022/09/05 01:55:00;;;;;;;;;;;18.30;99.90;;;;;;5002682;28;19992;-81
2022/09/05 01:57:41;;;;;;;;;;;18.30;99.90;;;;;;5002950;28;19925;-81
2022/09/05 02:00:09;;;;;;;;;;;18.30;99.90;;;;;;5003534;28;20327;-80
2022/09/05 02:02:53;;;;;;;;;;;18.20;99.90;;;;;;5002778;28;19925;-81
2022/09/05 02:05:37;;;;;;;;;;;18.20;99.90;;;;;;5003226;28;20316;-80
2022/09/05 02:08:14;;;;;;;;;;;18.20;99.90;;;;;;5003846;28;19926;-81
2022/09/05 02:10:52;;;;;;;;;;;18.10;99.90;;;;;;5001029;28;19933;-81
2022/09/05 02:13:25;;;;;;;;;;;18.10;99.90;;;;;;5003245;28;19925;-80
2022/09/05 02:16:00;;;;;;;;;;;18.10;99.90;;;;;;5002712;28;19953;-81
2022/09/05 02:18:43;;;;;;;;;;;18.00;99.90;;;;;;5002772;28;20307;-81
2022/09/05 02:21:13;;;;;;;;;;;17.90;99.90;;;;;;5003032;28;20012;-81
2022/09/05 02:23:58;;;;;;;;;;;17.90;99.90;;;;;;5002916;28;19926;-81
2022/09/05 02:26:56;;;;;;;;;;;17.80;99.90;;;;;;4990934;28;19925;-81
2022/09/05 02:29:22;;;;;;;;;;;17.80;99.90;;;;;;5001466;28;19952;-81
2022/09/05 02:31:49;;;;;;;;;;;17.70;99.90;;;;;;5001127;28;19926;-81
2022/09/05 02:34:34;;;;;;;;;;;17.60;99.90;;;;;;5002858;28;20318;-80
2022/09/05 02:37:07;;;;;;;;;;;17.50;99.90;;;;;;5002830;28;20398;-81
2022/09/05 02:39:39;;;;;;;;;;;17.50;99.90;;;;;;5001843;28;20339;-81
2022/09/05 02:42:07;;;;;;;;;;;17.50;99.90;;;;;;5002800;28;19925;-81
2022/09/05 02:44:33;;;;;;;;;;;17.40;99.90;;;;;;5002495;28;19928;-80
2022/09/05 02:47:06;;;;;;;;;;;17.40;99.90;;;;;;5002933;28;20380;-80
2022/09/05 02:49:34;;;;;;;;;;;17.40;99.90;;;;;;5002609;28;20300;-80
2022/09/05 02:52:04;;;;;;;;;;;17.40;99.90;;;;;;5002581;28;19925;-80
2022/09/05 02:54:38;;;;;;;;;;;17.40;99.90;;;;;;5001503;28;19926;-80
2022/09/05 02:57:06;;;;;;;;;;;17.30;99.90;;;;;;5002625;28;20009;-80
2022/09/05 02:59:50;;;;;;;;;;;17.30;99.90;;;;;;5002209;28;19922;-80
2022/09/05 03:02:21;;;;;;;;;;;17.30;99.90;;;;;;5002043;28;19936;-81
2022/09/05 03:05:06;;;;;;;;;;;17.30;99.90;;;;;;5000975;28;19925;-81
2022/09/05 03:07:50;;;;;;;;;;;17.20;99.90;;;;;;5001930;28;19925;-81
2022/09/05 03:10:25;;;;;;;;;;;17.20;99.90;;;;;;5000630;28;20008;-81
2022/09/05 03:12:56;;;;;;;;;;;17.20;99.90;;;;;;5002584;28;19925;-81
2022/09/05 03:15:26;;;;;;;;;;;17.10;99.90;;;;;;5002099;28;19980;-80
2022/09/05 03:18:07;;;;;;;;;;;17.10;99.90;;;;;;5002089;28;19936;-80
2022/09/05 03:20:51;;;;;;;;;;;17.10;99.90;;;;;;5000638;28;19929;-80
2022/09/05 03:23:35;;;;;;;;;;;17.00;99.90;;;;;;5002321;28;19932;-81
2022/09/05 03:26:21;;;;;;;;;;;17.00;99.90;;;;;;5000227;28;20062;-80
2022/09/05 03:29:05;;;;;;;;;;;17.00;99.90;;;;;;4982317;28;19936;-81
2022/09/05 03:31:43;;;;;;;;;;;16.90;99.90;;;;;;4982437;28;20008;-81
2022/09/05 03:34:22;;;;;;;;;;;16.90;99.90;;;;;;4983482;28;19926;-80
2022/09/05 03:37:00;;;;;;;;;;;16.90;99.90;;;;;;5000284;28;20184;-80
2022/09/05 03:39:26;;;;;;;;;;;16.90;99.90;;;;;;5000601;28;19921;-80
2022/09/05 03:42:11;;;;;;;;;;;16.90;99.90;;;;;;5001601;28;20304;-81
2022/09/05 03:44:42;;;;;;;;;;;16.90;99.90;;;;;;5002082;28;19967;-80
2022/09/05 03:47:31;;;;;;;;;;;16.80;99.90;;;;;;5000691;28;19992;-80
2022/09/05 03:50:07;;;;;;;;;;;16.80;99.90;;;;;;4956918;28;20398;-80
2022/09/05 03:52:52;;;;;;;;;;;16.80;99.90;;;;;;5001832;28;19923;-81
2022/09/05 03:55:26;;;;;;;;;;;16.80;99.90;;;;;;5001144;28;19952;-80
2022/09/05 03:58:06;;;;;;;;;;;16.80;99.90;;;;;;5001553;28;19929;-81
2022/09/05 04:00:33;;;;;;;;;;;16.80;99.90;;;;;;4984503;28;19932;-80
2022/09/05 04:03:04;;;;;;;;;;;16.70;99.90;;;;;;5000793;28;19926;-80
2022/09/05 04:05:41;;;;;;;;;;;16.70;99.90;;;;;;5001348;28;20233;-81
2022/09/05 04:08:26;;;;;;;;;;;16.60;99.90;;;;;;4982178;28;19926;-80
2022/09/05 04:11:00;;;;;;;;;;;16.60;99.90;;;;;;4980612;28;19925;-81
2022/09/05 04:13:49;;;;;;;;;;;16.60;99.90;;;;;;4999382;28;19983;-80
2022/09/05 04:16:35;;;;;;;;;;;16.60;99.90;;;;;;4965764;28;19972;-80
2022/09/05 04:19:30;;;;;;;;;;;16.60;99.90;;;;;;4977737;28;19964;-80
2022/09/05 04:22:14;;;;;;;;;;;16.60;99.90;;;;;;4977023;28;20016;-80
2022/09/05 04:24:57;;;;;;;;;;;16.50;99.90;;;;;;4983515;28;20012;-81
2022/09/05 04:27:28;;;;;;;;;;;16.50;99.90;;;;;;4996915;28;19980;-81
2022/09/05 04:29:57;;;;;;;;;;;16.50;99.90;;;;;;5005708;28;19933;-81
2022/09/05 04:32:29;;;;;;;;;;;16.50;99.90;;;;;;5005408;28;19925;-80
2022/09/05 04:35:05;;;;;;;;;;;16.50;99.90;;;;;;5005566;28;19972;-80
2022/09/05 04:37:31;;;;;;;;;;;16.50;99.90;;;;;;4996839;28;20000;-80
2022/09/05 04:40:16;;;;;;;;;;;16.40;99.90;;;;;;4989020;28;20004;-81
2022/09/05 04:42:45;;;;;;;;;;;16.40;99.90;;;;;;4984468;28;20009;-82
2022/09/05 04:45:13;;;;;;;;;;;16.40;99.90;;;;;;4985863;28;20077;-81
2022/09/05 04:47:41;;;;;;;;;;;16.40;99.90;;;;;;4987961;28;19926;-81
2022/09/05 04:50:13;;;;;;;;;;;16.50;99.90;;;;;;4988990;28;19932;-81
2022/09/05 04:52:57;;;;;;;;;;;16.40;99.90;;;;;;5005342;28;20099;-81
2022/09/05 04:55:24;;;;;;;;;;;16.40;99.90;;;;;;5004603;28;19997;-81
2022/09/05 04:57:55;;;;;;;;;;;16.40;99.90;;;;;;5004486;28;20142;-82
2022/09/05 05:00:24;;;;;;;;;;;16.40;99.90;;;;;;5004294;28;19925;-80
2022/09/05 05:02:52;;;;;;;;;;;16.40;99.90;;;;;;5005142;28;19932;-81
2022/09/05 05:05:22;;;;;;;;;;;16.40;99.90;;;;;;5005410;28;19934;-80
2022/09/05 05:08:02;;;;;;;;;;;16.40;99.90;;;;;;5005221;28;19925;-80
2022/09/05 05:10:27;;;;;;;;;;;16.40;99.90;;;;;;5004991;28;19925;-81
2022/09/05 05:12:56;;;;;;;;;;;16.40;99.90;;;;;;5004847;28;19975;-81
2022/09/05 05:15:23;;;;;;;;;;;16.40;99.90;;;;;;5003435;28;19926;-80
2022/09/05 05:17:54;;;;;;;;;;;16.40;99.90;;;;;;5004596;28;19943;-80
2022/09/05 05:20:29;;;;;;;;;;;16.40;99.90;;;;;;5005044;28;19926;-80
2022/09/05 05:23:02;;;;;;;;;;;16.40;99.90;;;;;;5003953;28;19933;-80
2022/09/05 05:25:30;;;;;;;;;;;16.40;99.90;;;;;;4983181;28;19933;-80
2022/09/05 05:28:03;;;;;;;;;;;16.40;99.90;;;;;;4989181;28;19926;-79
2022/09/05 05:30:31;;;;;;;;;;;16.40;99.90;;;;;;5004519;28;19948;-82
2022/09/05 05:32:59;;;;;;;;;;;16.40;99.90;;;;;;5005070;28;20435;-81
2022/09/05 05:35:29;;;;;;;;;;;16.50;99.90;;;;;;4992283;28;20291;-81
2022/09/05 05:38:14;;;;;;;;;;;16.50;99.90;;;;;;4990458;28;19933;-81
2022/09/05 05:40:44;;;;;;;;;;;16.60;99.90;;;;;;4995143;28;19944;-81
2022/09/05 05:43:36;;;;;;;;;;;16.70;99.90;;;;;;5004594;28;19921;-81
2022/09/05 05:46:02;;;;;;;;;;;16.70;99.90;;;;;;4997300;28;19991;-84
2022/09/05 05:48:34;;;;;;;;;;;16.70;99.90;;;;;;5005223;28;19921;-84
2022/09/05 05:51:19;;;;;;;;;;;16.70;99.90;;;;;;5005773;28;19925;-84
2022/09/05 05:54:05;;;;;;;;;;;16.70;99.90;;;;;;5003567;28;19925;-85
2022/09/05 05:56:37;;;;;;;;;;;16.80;99.90;;;;;;5003686;28;19930;-84
2022/09/05 05:59:21;;;;;;;;;;;16.80;99.90;;;;;;4997205;28;19984;-86
2022/09/05 06:02:08;;;;;;;;;;;16.80;99.90;;;;;;4992743;28;19926;-84
2022/09/05 06:04:42;;;;;;;;;;;16.90;99.90;;;;;;4986006;28;19929;-84
2022/09/05 06:07:37;;;;;;;;;;;16.90;99.90;;;;;;4969120;28;20392;-84
2022/09/05 06:10:16;;;;;;;;;;;17.00;99.90;;;;;;4932557;28;20072;-84
2022/09/05 06:13:01;;;;;;;;;;;17.00;99.90;;;;;;4968612;28;20617;-84
2022/09/05 06:15:48;;;;;;;;;;;17.00;99.90;;;;;;4984819;28;20012;-80
2022/09/05 06:18:20;;;;;;;;;;;17.10;99.90;;;;;;4983982;28;19926;-83
2022/09/05 06:21:06;;;;;;;;;;;17.10;99.90;;;;;;4984985;28;19926;-83
2022/09/05 06:23:35;;;;;;;;;;;17.10;99.90;;;;;;4983919;28;20334;-83
2022/09/05 06:26:19;;;;;;;;;;;17.20;99.90;;;;;;4993021;28;20562;-83
2022/09/05 06:28:48;;;;;;;;;;;17.20;99.90;;;;;;5000912;28;20394;-83
2022/09/05 06:31:13;;;;;;;;;;;17.30;99.90;;;;;;5004490;28;19925;-82
2022/09/05 06:33:44;;;;;;;;;;;17.30;99.90;;;;;;4999779;28;19940;-83
2022/09/05 06:36:10;;;;;;;;;;;17.30;99.90;;;;;;4999202;28;19940;-82
2022/09/05 06:38:54;;;;;;;;;;;17.40;99.90;;;;;;5000587;28;19929;-81
2022/09/05 06:41:20;;;;;;;;;;;17.40;99.90;;;;;;5003197;28;20003;-81
2022/09/05 06:44:03;;;;;;;;;;;17.50;99.90;;;;;;5003787;28;20407;-82
2022/09/05 06:46:29;;;;;;;;;;;17.50;99.90;;;;;;5002974;28;19926;-82
2022/09/05 06:49:16;;;;;;;;;;;17.50;99.90;;;;;;5003694;28;20544;-76
2022/09/05 06:51:48;;;;;;;;;;;17.60;99.90;;;;;;5003938;28;20023;-85
2022/09/05 06:54:19;;;;;;;;;;;17.70;99.90;;;;;;5002300;28;19926;-86
2022/09/05 06:56:53;;;;;;;;;;;17.70;99.90;;;;;;4997530;28;20464;-86
2022/09/05 06:59:25;;;;;;;;;;;17.70;99.90;;;;;;4994501;28;19968;-83
2022/09/05 07:02:08;;;;;;;;;;;17.80;99.90;;;;;;4992867;28;19925;-82
2022/09/05 07:04:36;;;;;;;;;;;17.80;99.90;;;;;;4995512;28;19925;-82
2022/09/05 07:07:08;;;;;;;;;;;17.90;99.90;;;;;;4994552;28;19949;-82
2022/09/05 07:09:46;;;;;;;;;;;17.90;99.90;;;;;;4999019;28;20336;-81
2022/09/05 07:12:21;;;;;;;;;;;17.90;99.90;;;;;;5000936;28;19940;-82
2022/09/05 07:14:55;;;;;;;;;;;18.00;99.90;;;;;;4996694;28;19925;-82
2022/09/05 07:17:35;;;;;;;;;;;18.00;99.90;;;;;;4991056;28;19933;-82
2022/09/05 07:20:04;;;;;;;;;;;18.10;99.90;;;;;;4997489;28;20410;-82
2022/09/05 07:22:50;;;;;;;;;;;18.10;99.90;;;;;;5001963;28;20281;-82
2022/09/05 07:25:25;;;;;;;;;;;18.10;99.90;;;;;;5000645;28;19925;-82
2022/09/05 07:27:58;;;;;;;;;;;18.20;99.90;;;;;;5001934;28;19925;-81
2022/09/05 07:30:24;;;;;;;;;;;18.30;99.90;;;;;;4985550;28;19949;-81
2022/09/05 07:32:52;;;;;;;;;;;18.30;99.90;;;;;;5001950;28;20516;-81
2022/09/05 07:35:37;;;;;;;;;;;18.30;99.90;;;;;;4990410;28;20373;-81
2022/09/05 07:38:23;;;;;;;;;;;18.40;99.90;;;;;;4994307;28;20291;-81
2022/09/05 07:40:56;;;;;;;;;;;18.50;99.90;;;;;;5002085;28;20131;-82
2022/09/05 07:43:22;;;;;;;;;;;18.50;99.90;;;;;;5002013;28;19937;-81
2022/09/05 07:46:03;;;;;;;;;;;18.60;99.90;;;;;;5002237;28;20158;-81
2022/09/05 07:48:32;;;;;;;;;;;18.60;99.90;;;;;;5005243;28;20159;-82
2022/09/05 07:50:59;;;;;;;;;;;18.70;99.90;;;;;;5006848;28;20312;-82
2022/09/05 07:53:26;;;;;;;;;;;18.80;99.90;;;;;;5004416;28;19925;-81
2022/09/05 07:55:56;;;;;;;;;;;18.80;99.90;;;;;;5004273;28;20395;-81
2022/09/05 07:58:24;;;;;;;;;;;18.80;99.90;;;;;;5006441;28;19929;-82
2022/09/05 08:00:50;;;;;;;;;;;18.80;99.90;;;;;;5005847;28;20427;-82
2022/09/05 08:03:16;;;;;;;;;;;18.90;99.90;;;;;;5004916;28;19925;-81
2022/09/05 08:05:46;;;;;;;;;;;18.90;99.90;;;;;;5005412;28;19937;-82
2022/09/05 08:08:14;;;;;;;;;;;19.00;99.90;;;;;;5005204;28;19926;-82
2022/09/05 08:11:03;;;;;;;;;;;19.00;99.90;;;;;;5005434;28;19925;-82
2022/09/05 08:13:41;;;;;;;;;;;19.10;99.90;;;;;;5002545;28;19955;-82
2022/09/05 08:16:10;;;;;;;;;;;19.20;99.90;;;;;;5005224;28;19972;-82
2022/09/05 08:18:39;;;;;;;;;;;19.20;99.90;;;;;;5005841;28;19929;-81
2022/09/05 08:21:12;;;;;;;;;;;19.30;99.90;;;;;;5005488;28;19926;-82
2022/09/05 08:23:53;;;;;;;;;;;19.40;99.90;;;;;;5005029;28;19976;-82
2022/09/05 08:26:41;;;;;;;;;;;19.40;99.90;;;;;;5005471;28;20352;-87
2022/09/05 08:29:22;;;;;;;;;;;19.40;99.90;;;;;;4996877;28;19929;-75
2022/09/05 08:31:51;;;;;;;;;;;19.50;99.90;;;;;;5006403;28;20012;-76
2022/09/05 08:34:20;;;;;;;;;;;19.60;99.90;;;;;;5006385;28;19929;-84
2022/09/05 08:36:47;;;;;;;;;;;19.60;99.90;;;;;;5006031;28;19932;-87
2022/09/05 08:39:16;;;;;;;;;;;19.70;99.90;;;;;;5003906;28;19948;-87
2022/09/05 08:42:02;;;;;;;;;;;19.70;99.90;;;;;;5005805;28;19933;-88
2022/09/05 08:44:37;;;;;;;;;;;19.80;99.90;;;;;;5006054;28;19932;-87
2022/09/05 08:47:10;;;;;;;;;;;19.80;99.90;;;;;;5009104;28;19926;-87
2022/09/05 08:49:44;;;;;;;;;;;19.90;99.90;;;;;;5005956;28;19925;-85
2022/09/05 08:52:17;;;;;;;;;;;20.00;99.90;;;;;;5006323;28;20472;-87
2022/09/05 08:55:02;;;;;;;;;;;20.10;99.90;;;;;;4998410;28;19926;-87
2022/09/05 08:57:46;;;;;;;;;;;20.10;99.90;;;;;;4995973;28;19926;-88
2022/09/05 09:00:16;;;;;;;;;;;20.20;99.90;;;;;;5001567;28;19926;-88
2022/09/05 09:03:00;;;;;;;;;;;20.30;99.90;;;;;;4993594;28;19926;-88
2022/09/05 09:05:35;;;;;;;;;;;20.40;99.90;;;;;;4987274;28;19981;-87
2022/09/05 09:08:11;;;;;;;;;;;20.50;99.90;;;;;;4998442;28;19926;-87
2022/09/05 09:11:06;;;;;;;;;;;20.60;99.90;;;;;;5005129;28;19968;-87
2022/09/05 09:13:50;;;;;;;;;;;20.60;99.90;;;;;;4983985;28;20745;-86
2022/09/05 09:16:26;;;;;;;;;;;20.70;99.90;;;;;;4985330;28;19926;-87
2022/09/05 09:18:52;;;;;;;;;;;20.80;99.90;;;;;;4985208;28;19996;-87
2022/09/05 09:21:27;;;;;;;;;;;20.90;99.90;;;;;;5000818;28;19925;-87
2022/09/05 09:24:11;;;;;;;;;;;21.00;99.90;;;;;;5004312;28;20382;-86
2022/09/05 09:26:50;;;;;;;;;;;21.10;99.90;;;;;;5004162;28;19984;-86
2022/09/05 09:29:16;;;;;;;;;;;21.10;99.90;;;;;;5004982;28;19926;-86
2022/09/05 09:31:55;;;;;;;;;;;21.20;99.90;;;;;;5004060;28;19952;-87
2022/09/05 09:34:24;;;;;;;;;;;21.30;99.90;;;;;;5004538;28;19929;-86
2022/09/05 09:36:49;;;;;;;;;;;21.40;99.90;;;;;;5004338;28;19926;-86
2022/09/05 09:39:21;;;;;;;;;;;21.40;99.90;;;;;;5002337;28;19925;-86
2022/09/05 09:41:46;;;;;;;;;;;21.50;99.90;;;;;;5004489;28;20012;-86
2022/09/05 09:44:41;;;;;;;;;;;21.50;99.90;;;;;;5003790;28;20024;-86
2022/09/05 09:47:11;;;;;;;;;;;21.50;99.90;;;;;;5002587;28;20011;-87
2022/09/05 09:49:39;;;;;;;;;;;21.60;99.90;;;;;;5003989;28;19933;-87
2022/09/05 09:52:11;;;;;;;;;;;21.60;99.90;;;;;;5005243;28;19932;-87
2022/09/05 09:54:39;;;;;;;;;;;21.70;99.90;;;;;;5002482;28;19925;-88
2022/09/05 09:57:31;;;;;;;;;;;21.70;99.90;;;;;;5004403;28;19969;-87
2022/09/05 10:00:03;;;;;;;;;;;21.80;99.90;;;;;;5003817;28;19932;-86
2022/09/05 10:02:48;;;;;;;;;;;21.80;99.90;;;;;;5004460;28;19933;-84
2022/09/05 10:05:32;;;;;;;;;;;21.90;99.90;;;;;;4986849;28;19933;-84
2022/09/05 10:08:21;;;;;;;;;;;22.00;99.90;;;;;;5003036;28;19926;-84
2022/09/05 10:10:53;;;;;;;;;;;22.00;99.90;;;;;;5002923;28;20289;-83
2022/09/05 10:13:39;;;;;;;;;;;22.10;99.90;;;;;;5003546;28;20019;-83
2022/09/05 10:16:11;;;;;;;;;;;22.20;99.90;;;;;;5002012;28;19926;-83
2022/09/05 10:18:39;;;;;;;;;;;22.20;99.90;;;;;;5002870;28;20485;-83
2022/09/05 10:21:08;;;;;;;;;;;22.30;99.90;;;;;;5002305;28;19932;-84
2022/09/05 10:23:33;;;;;;;;;;;22.40;99.90;;;;;;5001278;28;20329;-83
2022/09/05 10:26:07;;;;;;;;;;;22.40;99.90;;;;;;5002791;28;20012;-83
2022/09/05 10:28:33;;;;;;;;;;;22.50;99.90;;;;;;5002858;28;19932;-83
2022/09/05 10:31:01;;;;;;;;;;;22.60;99.90;;;;;;5002055;28;20323;-82
2022/09/05 10:33:45;;;;;;;;;;;22.60;99.90;;;;;;5002479;28;20276;-83
2022/09/05 10:36:14;;;;;;;;;;;22.70;99.90;;;;;;5001311;28;20004;-83
2022/09/05 10:38:43;;;;;;;;;;;22.70;99.90;;;;;;4988901;28;20368;-83
2022/09/05 10:41:10;;;;;;;;;;;22.80;99.90;;;;;;5002881;28;20591;-83
2022/09/05 10:43:45;;;;;;;;;;;22.80;99.90;;;;;;5001544;28;20016;-83
2022/09/05 10:46:20;;;;;;;;;;;22.90;99.90;;;;;;5001759;28;19921;-83
2022/09/05 10:48:47;;;;;;;;;;;23.00;99.90;;;;;;5001973;28;19925;-84
2022/09/05 10:51:20;;;;;;;;;;;23.00;99.90;;;;;;4983519;28;19921;-84
2022/09/05 10:54:06;;;;;;;;;;;23.10;99.90;;;;;;4998462;28;19926;-84
2022/09/05 10:56:38;;;;;;;;;;;23.10;99.90;;;;;;4984386;28;19984;-84
2022/09/05 10:59:08;;;;;;;;;;;23.20;99.90;;;;;;5002941;28;19972;-84
2022/09/05 11:01:46;;;;;;;;;;;23.20;99.90;;;;;;5002913;28;20016;-84
2022/09/05 11:04:15;;;;;;;;;;;23.30;99.90;;;;;;5001194;28;19964;-83
2022/09/05 11:06:41;;;;;;;;;;;23.30;99.90;;;;;;5000716;28;19925;-84
2022/09/05 11:09:11;;;;;;;;;;;23.40;99.90;;;;;;5001729;28;20050;-84
2022/09/05 11:11:45;;;;;;;;;;;23.40;99.90;;;;;;5000923;28;19963;-83
2022/09/05 11:14:30;;;;;;;;;;;23.40;99.90;;;;;;5001076;28;19926;-83
2022/09/05 11:17:02;;;;;;;;;;;23.50;99.90;;;;;;5017714;28;19925;-83
2022/09/05 11:19:48;;;;;;;;;;;23.50;99.90;;;;;;5002865;28;19951;-83
2022/09/05 11:22:14;;;;;;;;;;;23.50;99.90;;;;;;5000820;28;20023;-83
2022/09/05 11:24:54;;;;;;;;;;;23.60;99.90;;;;;;4999877;28;19932;-83
2022/09/05 11:27:26;;;;;;;;;;;23.60;99.90;;;;;;5000707;28;19932;-84
2022/09/05 11:30:05;;;;;;;;;;;23.70;99.90;;;;;;5002312;28;19926;-84
2022/09/05 11:32:41;;;;;;;;;;;23.70;99.90;;;;;;5001133;28;20020;-83
2022/09/05 11:35:24;;;;;;;;;;;23.80;99.90;;;;;;4996659;28;20078;-83
2022/09/05 11:38:08;;;;;;;;;;;23.80;99.90;;;;;;5000977;28;19925;-84
2022/09/05 11:40:41;;;;;;;;;;;23.90;99.90;;;;;;5003283;28;19937;-87
2022/09/05 11:43:06;;;;;;;;;;;23.80;99.90;;;;;;5001819;28;19922;-86
2022/09/05 11:45:35;;;;;;;;;;;23.90;99.90;;;;;;5000769;28;20025;-85
2022/09/05 11:48:19;;;;;;;;;;;23.90;99.90;;;;;;4992653;28;20232;-86
2022/09/05 11:50:44;;;;;;;;;;;23.90;99.90;;;;;;5002945;28;19929;-85
2022/09/05 11:53:36;;;;;;;;;;;24.00;99.90;;;;;;5001902;28;19929;-86
2022/09/05 11:56:20;;;;;;;;;;;24.00;99.90;;;;;;4987358;28;19925;-85
2022/09/05 11:58:57;;;;;;;;;;;24.00;99.90;;;;;;5002191;28;19972;-86
2022/09/05 12:01:28;;;;;;;;;;;24.10;99.90;;;;;;5001491;28;20404;-86
2022/09/05 12:04:15;;;;;;;;;;;24.20;99.90;;;;;;4991598;28;20021;-86
2022/09/05 12:06:56;;;;;;;;;;;24.30;99.90;;;;;;4952918;28;20362;-85
2022/09/05 12:09:31;;;;;;;;;;;24.30;99.90;;;;;;4997501;28;20638;-86
2022/09/05 12:12:09;;;;;;;;;;;24.30;99.90;;;;;;4997196;28;19932;-81
2022/09/05 12:14:37;;;;;;;;;;;24.40;99.90;;;;;;4984312;28;19917;-82
2022/09/05 12:17:08;;;;;;;;;;;24.40;99.90;;;;;;5001732;28;19926;-83
2022/09/05 12:19:36;;;;;;;;;;;24.40;99.90;;;;;;5002325;28;19921;-82
2022/09/05 12:22:02;;;;;;;;;;;24.50;99.90;;;;;;5002680;28;19926;-86
2022/09/05 12:24:36;;;;;;;;;;;24.50;99.90;;;;;;5001013;28;19968;-80
2022/09/05 12:27:01;;;;;;;;;;;24.50;99.90;;;;;;5001612;28;19929;-81
2022/09/05 12:29:29;;;;;;;;;;;24.60;99.90;;;;;;5003133;28;19980;-77
2022/09/05 12:31:57;;;;;;;;;;;24.60;99.90;;;;;;5001152;28;19925;-77
2022/09/05 12:34:35;;;;;;;;;;;24.50;99.90;;;;;;4996096;28;19945;-81
2022/09/05 12:37:02;;;;;;;;;;;24.50;99.90;;;;;;4984989;28;19969;-81
2022/09/05 12:39:35;;;;;;;;;;;24.40;99.90;;;;;;4987822;28;20407;-80
2022/09/05 12:42:06;;;;;;;;;;;24.40;99.90;;;;;;5003940;28;19957;-77
2022/09/05 12:44:31;;;;;;;;;;;24.40;99.90;;;;;;5002839;28;20453;-81
2022/09/05 12:47:02;;;;;;;;;;;24.40;99.70;;;;;;5004815;28;19922;-78
2022/09/05 12:49:33;;;;;;;;;;;24.50;99.60;;;;;;5005448;28;19925;-78
2022/09/05 12:52:02;;;;;;;;;;;24.50;99.40;;;;;;4994737;28;19921;-78
2022/09/05 12:54:34;;;;;;;;;;;24.50;98.50;;;;;;5004385;28;19940;-78
2022/09/05 12:56:59;;;;;;;;;;;24.60;99.20;;;;;;4998440;28;19988;-78
2022/09/05 12:59:26;;;;;;;;;;;24.50;98.40;;;;;;4999246;28;19929;-78
2022/09/05 13:02:07;;;;;;;;;;;24.60;97.70;;;;;;4992752;28;19933;-78
2022/09/05 13:04:39;;;;;;;;;;;24.60;97.60;;;;;;4967470;28;19930;-78
2022/09/05 13:07:10;;;;;;;;;;;24.60;97.40;;;;;;4983381;28;19936;-78
2022/09/05 13:09:39;;;;;;;;;;;24.70;98.00;;;;;;4982326;28;20451;-78
2022/09/05 13:12:11;;;;;;;;;;;24.80;98.30;;;;;;4985603;28;19933;-78
2022/09/05 13:14:42;;;;;;;;;;;24.80;97.50;;;;;;4984051;28;19933;-78
2022/09/05 13:17:12;;;;;;;;;;;24.90;98.20;;;;;;4984662;28;19940;-78
2022/09/05 13:19:49;;;;;;;;;;;24.90;97.30;;;;;;4990231;28;19948;-78
2022/09/05 13:22:17;;;;;;;;;;;24.90;97.90;;;;;;4994085;28;20308;-78
2022/09/05 13:24:46;;;;;;;;;;;24.90;98.30;;;;;;4991084;28;19928;-78
2022/09/05 13:27:14;;;;;;;;;;;24.90;96.70;;;;;;5005543;28;19929;-78
2022/09/05 13:29:52;;;;;;;;;;;24.90;97.10;;;;;;5005058;28;20170;-78
2022/09/05 13:32:20;;;;;;;;;;;24.90;96.80;;;;;;5002381;28;19932;-78
2022/09/05 13:34:47;;;;;;;;;;;24.90;96.60;;;;;;5004267;28;19921;-78
2022/09/05 13:37:29;;;;;;;;;;;25.00;96.80;;;;;;5004280;28;19926;-79
2022/09/05 13:39:55;;;;;;;;;;;25.10;95.70;;;;;;4988846;28;19929;-78
2022/09/05 13:42:22;;;;;;;;;;;25.20;95.00;;;;;;5002658;28;20476;-78
2022/09/05 13:44:50;;;;;;;;;;;25.20;94.80;;;;;;4996610;28;19936;-77
2022/09/05 13:47:33;;;;;;;;;;;25.20;93.30;;;;;;5001347;28;20017;-76
2022/09/05 13:50:04;;;;;;;;;;;25.20;93.40;;;;;;4995478;28;19945;-76
2022/09/05 13:52:34;;;;;;;;;;;25.20;92.70;;;;;;5002113;28;19929;-77
2022/09/05 13:55:03;;;;;;;;;;;25.20;93.30;;;;;;5002277;28;19925;-78
2022/09/05 13:57:32;;;;;;;;;;;25.20;93.60;;;;;;4991553;28;20392;-82
2022/09/05 14:00:16;;;;;;;;;;;25.20;94.00;;;;;;5003089;28;19922;-83
2022/09/05 14:03:04;;;;;;;;;;;25.20;94.30;;;;;;4980038;28;20280;-82
2022/09/05 14:05:36;;;;;;;;;;;25.20;95.20;;;;;;4985683;28;20376;-81
2022/09/05 14:08:16;;;;;;;;;;;25.30;91.90;;;;;;5001774;28;19968;-84
2022/09/05 14:10:42;;;;;;;;;;;25.40;91.30;;;;;;4994593;28;19983;-80
2022/09/05 14:13:15;;;;;;;;;;;25.50;90.50;;;;;;5000617;28;19962;-81
2022/09/05 14:16:01;;;;;;;;;;;25.40;90.90;;;;;;4992556;28;19930;-81
2022/09/05 14:21:14;;;;;;;;;;;25.50;90.20;;;;;;4993377;28;20462;-82
2022/09/05 14:21:20;;;;;;;;;;;25.40;84.80;;;;;;4994418;28;19932;-82
2022/09/05 14:23:53;;;;;;;;;;;25.40;83.70;;;;;;4993523;28;19926;-84
2022/09/05 14:26:39;;;;;;;;;;;25.40;83.70;;;;;;4993297;28;19934;-83
2022/09/05 14:29:13;;;;;;;;;;;25.40;85.50;;;;;;5007347;28;19936;-83
2022/09/05 14:31:48;;;;;;;;;;;25.40;86.80;;;;;;4996077;28;19969;-83
2022/09/05 14:34:20;;;;;;;;;;;25.50;87.00;;;;;;4992905;28;19936;-83
2022/09/05 14:36:48;;;;;;;;;;;25.50;85.70;;;;;;4990984;28;19925;-85
2022/09/05 14:39:33;;;;;;;;;;;25.50;84.80;;;;;;4978258;28;20582;-82
2022/09/05 14:42:09;;;;;;;;;;;25.50;83.90;;;;;;4992472;28;20360;-81
2022/09/05 14:44:57;;;;;;;;;;;25.50;83.90;;;;;;4986471;28;19926;-81
2022/09/05 14:47:44;;;;;;;;;;;25.40;85.40;;;;;;4979443;28;20351;-81
2022/09/05 14:50:16;;;;;;;;;;;25.30;87.10;;;;;;4981694;28;20016;-82
2022/09/05 14:52:57;;;;;;;;;;;25.30;85.40;;;;;;4981888;28;20104;-81
2022/09/05 14:55:24;;;;;;;;;;;25.30;89.50;;;;;;4979264;28;19944;-82
2022/09/05 14:57:49;;;;;;;;;;;25.30;90.30;;;;;;4980271;28;19956;-81
2022/09/05 15:00:16;;;;;;;;;;;25.30;91.10;;;;;;4982482;28;20388;-83